Time;durP1;ratioP1;P1;durP2;ratioP2;P2;SDS_P1;SDS_P2;PMS_P1;PMS_P2;Temp;Humidity;BMP_temperature;BMP_pressure;BME280_temperature;BME280_humidity;BME280_pressure;Samples;Min_cycle;Max_cycle;Signal;HPM_P1;HPM_P2
2022/04/22 00:00:47;;;;;;;26.48;15.00;;;;;;;;;;4884454;29;20060;-86
2022/04/22 00:03:12;;;;;;;26.77;14.57;;;;;;;;;;4899446;29;20029;-86
2022/04/22 00:05:37;;;;;;;27.95;15.27;;;;;;;;;;4900225;29;20025;-86
2022/04/22 00:08:10;;;;;;;27.95;16.02;;;;;;;;;;4899437;29;20021;-86
2022/04/22 00:11:28;;;;;;;28.88;14.98;;;;;;;;;;4893731;29;20021;-86
2022/04/22 00:13:21;;;;;;;27.42;16.02;;;;;;;;;;4898562;29;20084;-87
2022/04/22 00:15:49;;;;;;;25.35;15.90;;;;;;;;;;4884491;29;20503;-86
2022/04/22 00:18:14;;;;;;;26.95;15.23;;;;;;;;;;4902442;29;20088;-83
2022/04/22 00:20:39;;;;;;;28.10;15.55;;;;;;;;;;4886656;29;20051;-81
2022/04/22 00:23:05;;;;;;;28.98;17.13;;;;;;;;;;4904559;29;20029;-85
2022/04/22 00:25:30;;;;;;;27.27;16.23;;;;;;;;;;4886987;29;20035;-83
2022/04/22 00:27:55;;;;;;;32.25;16.23;;;;;;;;;;4905537;29;20465;-83
2022/04/22 00:30:21;;;;;;;28.48;16.83;;;;;;;;;;4906082;29;20040;-84
2022/04/22 00:32:46;;;;;;;27.50;16.45;;;;;;;;;;4907468;29;20027;-85
2022/04/22 00:35:11;;;;;;;27.93;16.40;;;;;;;;;;4910229;29;20040;-86
2022/04/22 00:37:40;;;;;;;29.58;16.80;;;;;;;;;;4886787;29;20334;-86
2022/04/22 00:40:06;;;;;;;28.98;15.70;;;;;;;;;;4896690;29;20032;-85
2022/04/22 00:42:34;;;;;;;28.80;15.98;;;;;;;;;;4880818;29;20036;-86
2022/04/22 00:44:59;;;;;;;28.23;16.48;;;;;;;;;;4894856;29;20024;-85
2022/04/22 00:47:25;;;;;;;27.90;16.27;;;;;;;;;;4896858;29;20492;-86
2022/04/22 00:49:50;;;;;;;27.52;15.38;;;;;;;;;;4880715;29;20099;-85
2022/04/22 00:52:16;;;;;;;30.48;16.58;;;;;;;;;;4899778;29;20025;-84
2022/04/22 00:54:51;;;;;;;28.17;16.33;;;;;;;;;;4882666;29;20560;-85
2022/04/22 00:57:18;;;;;;;31.42;17.52;;;;;;;;;;4883337;29;20025;-85
2022/04/22 00:59:43;;;;;;;29.85;16.65;;;;;;;;;;4899947;29;20025;-83
2022/04/22 01:02:08;;;;;;;29.73;16.67;;;;;;;;;;4898447;29;20500;-84
2022/04/22 01:10:02;;;;;;;30.45;15.73;;;;;;;;;;4899077;29;20020;-80
2022/04/22 01:12:30;;;;;;;32.08;16.83;;;;;;;;;;4885156;29;20028;-83
2022/04/22 01:14:56;;;;;;;31.17;16.33;;;;;;;;;;4896932;29;20020;-83
2022/04/22 01:17:21;;;;;;;30.50;16.48;;;;;;;;;;4897522;29;20532;-86
2022/04/22 01:19:46;;;;;;;28.55;16.50;;;;;;;;;;4895525;29;20029;-86
2022/04/22 01:22:13;;;;;;;31.63;15.80;;;;;;;;;;4896577;29;20120;-86
2022/04/22 01:24:38;;;;;;;32.05;16.88;;;;;;;;;;4898267;29;20024;-86
2022/04/22 01:27:03;;;;;;;27.85;16.02;;;;;;;;;;4900611;29;20441;-84
2022/04/22 01:29:28;;;;;;;30.35;16.80;;;;;;;;;;4902224;29;20012;-84
2022/04/22 01:31:54;;;;;;;28.60;16.17;;;;;;;;;;4900948;29;20016;-84
2022/04/22 01:34:19;;;;;;;27.20;15.37;;;;;;;;;;4884098;29;20040;-82
2022/04/22 01:36:46;;;;;;;27.67;16.63;;;;;;;;;;4899882;29;20358;-83
2022/04/22 01:39:11;;;;;;;27.50;15.02;;;;;;;;;;4896306;29;20121;-83
2022/04/22 01:41:36;;;;;;;31.30;17.13;;;;;;;;;;4884328;29;20504;-83
2022/04/22 01:44:02;;;;;;;32.50;16.10;;;;;;;;;;4883555;29;20032;-83
2022/04/22 01:46:27;;;;;;;28.55;16.65;;;;;;;;;;4883615;29;20267;-83
2022/04/22 01:48:52;;;;;;;31.60;17.17;;;;;;;;;;4901389;29;20024;-82
2022/04/22 01:51:17;;;;;;;28.25;17.27;;;;;;;;;;4883364;29;20492;-86
2022/04/22 01:53:43;;;;;;;29.20;17.13;;;;;;;;;;4897742;29;20025;-85
2022/04/22 01:56:08;;;;;;;30.65;16.73;;;;;;;;;;4887886;29;20786;-85
2022/04/22 01:58:33;;;;;;;29.40;15.93;;;;;;;;;;4883272;29;20484;-86
2022/04/22 02:00:58;;;;;;;29.23;16.02;;;;;;;;;;4899665;29;20545;-83
2022/04/22 02:03:23;;;;;;;29.30;16.63;;;;;;;;;;4899800;29;20033;-86
2022/04/22 02:05:49;;;;;;;29.45;17.27;;;;;;;;;;4883466;29;20048;-84
2022/04/22 02:08:14;;;;;;;31.42;17.30;;;;;;;;;;4882005;29;20513;-86
2022/04/22 02:10:41;;;;;;;29.85;17.23;;;;;;;;;;4883032;29;20480;-86
2022/04/22 02:13:07;;;;;;;30.48;16.80;;;;;;;;;;4903371;29;20031;-85
2022/04/22 02:15:32;;;;;;;31.45;17.80;;;;;;;;;;4901968;29;20017;-85
2022/04/22 02:17:57;;;;;;;28.13;16.05;;;;;;;;;;4882828;29;20111;-85
2022/04/22 02:20:22;;;;;;;34.13;17.60;;;;;;;;;;4882698;29;20397;-85
2022/04/22 02:22:48;;;;;;;31.10;17.13;;;;;;;;;;4900095;29;20111;-84
2022/04/22 02:25:13;;;;;;;29.73;17.58;;;;;;;;;;4881402;29;20024;-87
2022/04/22 02:30:25;;;;;;;30.92;16.85;;;;;;;;;;4900085;29;20510;-87
2022/04/22 02:32:51;;;;;;;31.17;17.48;;;;;;;;;;4899715;29;20076;-84
2022/04/22 02:35:16;;;;;;;32.08;18.70;;;;;;;;;;4899566;29;20037;-83
2022/04/22 02:37:41;;;;;;;32.63;17.70;;;;;;;;;;4899466;29;20052;-81
2022/04/22 02:40:07;;;;;;;29.58;16.92;;;;;;;;;;4899408;29;20384;-81
2022/04/22 02:45:28;;;;;;;32.08;17.50;;;;;;;;;;4918087;23;20206;-75
2022/04/22 02:47:54;;;;;;;32.15;18.60;;;;;;;;;;4919620;29;20023;-78
2022/04/22 02:50:19;;;;;;;32.15;17.88;;;;;;;;;;4936643;29;20459;-79
2022/04/22 02:52:45;;;;;;;27.58;16.25;;;;;;;;;;4933525;29;20023;-75
2022/04/22 02:55:10;;;;;;;33.58;17.45;;;;;;;;;;4936454;29;20028;-78
2022/04/22 02:57:35;;;;;;;33.25;19.05;;;;;;;;;;4936667;29;20110;-75
2022/04/22 03:00:01;;;;;;;34.38;18.33;;;;;;;;;;4936458;29;20045;-75
2022/04/22 03:02:26;;;;;;;31.38;17.50;;;;;;;;;;4919457;29;20024;-77
2022/04/22 03:04:51;;;;;;;35.90;18.13;;;;;;;;;;4903592;29;20020;-75
2022/04/22 03:07:17;;;;;;;30.65;17.35;;;;;;;;;;4919399;29;20119;-74
2022/04/22 03:09:42;;;;;;;31.50;17.85;;;;;;;;;;4933785;29;20063;-76
2022/04/22 03:12:08;;;;;;;34.10;18.10;;;;;;;;;;4918989;29;20128;-74
2022/04/22 03:14:33;;;;;;;29.88;17.60;;;;;;;;;;4936321;29;20023;-74
2022/04/22 03:16:58;;;;;;;35.22;18.13;;;;;;;;;;4925293;29;20027;-75
2022/04/22 03:19:23;;;;;;;31.55;18.58;;;;;;;;;;4936387;29;20475;-75
2022/04/22 03:21:49;;;;;;;33.40;18.63;;;;;;;;;;4936039;29;20023;-76
2022/04/22 03:24:14;;;;;;;33.08;17.75;;;;;;;;;;4936299;29;20020;-74
2022/04/22 03:26:39;;;;;;;35.22;19.27;;;;;;;;;;4934518;29;20419;-74
2022/04/22 03:29:04;;;;;;;32.05;17.63;;;;;;;;;;4936058;29;20047;-76
2022/04/22 03:31:30;;;;;;;35.45;18.38;;;;;;;;;;4936010;29;20043;-75
2022/04/22 03:33:55;;;;;;;34.95;18.60;;;;;;;;;;4936009;29;20024;-78
2022/04/22 03:36:20;;;;;;;32.38;18.10;;;;;;;;;;4918964;29;20077;-77
2022/04/22 03:38:45;;;;;;;37.53;20.02;;;;;;;;;;4923493;29;20094;-78
2022/04/22 03:41:11;;;;;;;33.42;19.38;;;;;;;;;;4936022;29;20435;-78
2022/04/22 03:43:36;;;;;;;34.80;18.98;;;;;;;;;;4931836;29;20444;-77
2022/04/22 03:46:01;;;;;;;34.33;18.35;;;;;;;;;;4922518;29;20028;-78
2022/04/22 03:48:27;;;;;;;32.08;18.77;;;;;;;;;;4934769;29;20045;-76
2022/04/22 03:50:52;;;;;;;33.15;18.92;;;;;;;;;;4935855;29;20026;-76
2022/04/22 03:53:17;;;;;;;35.63;18.42;;;;;;;;;;4918381;29;20024;-76
2022/04/22 03:55:43;;;;;;;32.85;18.27;;;;;;;;;;4935513;29;20031;-76
2022/04/22 03:58:12;;;;;;;32.88;18.88;;;;;;;;;;4918426;29;20106;-76
2022/04/22 04:00:39;;;;;;;;;;;;;;;;;;4934560;29;20035;-76
2022/04/22 04:03:05;;;;;;;35.13;18.73;;;;;;;;;;4935161;29;20294;-75
2022/04/22 04:05:31;;;;;;;35.00;19.35;;;;;;;;;;4918238;29;20031;-76
2022/04/22 04:07:56;;;;;;;32.67;18.17;;;;;;;;;;4931975;29;20031;-75
2022/04/22 04:15:58;;;;;;;32.97;18.98;;;;;;;;;;4935469;29;20154;-76
2022/04/22 04:18:27;;;;;;;34.60;19.27;;;;;;;;;;4918278;29;20027;-77
2022/04/22 04:23:37;;;;;;;37.05;19.90;;;;;;;;;;4935131;29;20035;-77
2022/04/22 04:26:02;;;;;;;32.60;19.20;;;;;;;;;;4935260;29;20020;-77
2022/04/22 04:28:27;;;;;;;35.00;19.42;;;;;;;;;;4918246;29;20043;-77
2022/04/22 04:30:56;;;;;;;33.38;18.52;;;;;;;;;;4923540;29;20043;-77
2022/04/22 04:33:21;;;;;;;36.67;19.13;;;;;;;;;;4934771;29;20022;-78
2022/04/22 04:35:47;;;;;;;35.03;19.90;;;;;;;;;;4935083;29;20471;-74
2022/04/22 04:38:13;;;;;;;35.47;19.85;;;;;;;;;;4917660;29;20106;-75
2022/04/22 04:40:38;;;;;;;34.33;19.90;;;;;;;;;;4918130;29;20018;-74
2022/04/22 04:43:06;;;;;;;36.33;19.23;;;;;;;;;;4934265;29;20020;-74
2022/04/22 04:45:32;;;;;;;35.13;19.25;;;;;;;;;;4921098;29;20031;-74
2022/04/22 04:47:57;;;;;;;35.33;19.52;;;;;;;;;;4934360;29;20027;-75
2022/04/22 04:50:23;;;;;;;35.50;19.52;;;;;;;;;;4921157;29;20368;-76
2022/04/22 04:52:48;;;;;;;36.63;19.98;;;;;;;;;;4934459;29;20024;-76
2022/04/22 04:55:14;;;;;;;35.35;19.35;;;;;;;;;;4934216;29;20103;-75
2022/04/22 04:57:39;;;;;;;33.58;19.13;;;;;;;;;;4917320;29;20020;-76
2022/04/22 05:00:11;;;;;;;33.42;19.55;;;;;;;;;;4935006;29;20054;-75
2022/04/22 05:02:37;;;;;;;38.83;19.52;;;;;;;;;;4934465;29;20062;-76
2022/04/22 05:05:05;;;;;;;35.97;19.35;;;;;;;;;;4934555;29;20047;-74
2022/04/22 05:07:30;;;;;;;37.00;20.05;;;;;;;;;;4934713;29;20053;-74
2022/04/22 05:09:55;;;;;;;36.22;19.73;;;;;;;;;;4934423;29;20613;-75
2022/04/22 05:12:20;;;;;;;37.63;19.25;;;;;;;;;;4918646;29;20360;-75
2022/04/22 05:14:51;;;;;;;36.83;20.35;;;;;;;;;;4934059;29;20484;-75
2022/04/22 05:17:16;;;;;;;36.88;20.10;;;;;;;;;;4917458;29;20036;-74
2022/04/22 05:19:42;;;;;;;37.35;20.38;;;;;;;;;;4917877;29;20030;-77
2022/04/22 05:22:17;;;;;;;38.58;20.38;;;;;;;;;;4934803;29;20031;-77
2022/04/22 05:24:42;;;;;;;37.60;20.00;;;;;;;;;;4921676;29;20510;-79
2022/04/22 05:27:07;;;;;;;38.05;20.20;;;;;;;;;;4917412;29;20020;-76
2022/04/22 05:35:00;;;;;;;35.38;21.10;;;;;;;;;;4928176;29;20082;-76
2022/04/22 05:37:26;;;;;;;32.28;20.52;;;;;;;;;;4917068;29;20051;-78
2022/04/22 05:39:51;;;;;;;38.70;20.67;;;;;;;;;;4918051;29;20028;-76
2022/04/22 05:42:17;;;;;;;36.25;20.65;;;;;;;;;;4920957;29;20030;-76
2022/04/22 05:44:42;;;;;;;41.83;22.08;;;;;;;;;;4939856;29;20024;-77
2022/04/22 05:47:07;;;;;;;38.97;21.73;;;;;;;;;;4921214;29;20082;-76
2022/04/22 05:49:33;;;;;;;36.30;20.13;;;;;;;;;;4920687;29;20020;-74
2022/04/22 05:51:58;;;;;;;35.53;21.33;;;;;;;;;;4934508;29;20387;-74
2022/04/22 05:54:23;;;;;;;37.20;21.73;;;;;;;;;;4914801;29;20039;-76
2022/04/22 05:56:48;;;;;;;40.25;21.83;;;;;;;;;;4934536;29;20384;-75
2022/04/22 05:59:14;;;;;;;37.83;20.92;;;;;;;;;;4917104;29;20107;-75
2022/04/22 06:01:39;;;;;;;38.33;21.45;;;;;;;;;;4934092;29;20075;-75
2022/04/22 06:04:04;;;;;;;43.25;23.25;;;;;;;;;;4935273;29;20075;-74
2022/04/22 06:06:30;;;;;;;42.33;23.85;;;;;;;;;;4934965;29;20423;-75
2022/04/22 06:11:40;;;;;;;43.85;24.88;;;;;;;;;;4937040;29;20022;-74
2022/04/22 06:14:05;;;;;;;42.45;24.67;;;;;;;;;;4937833;29;20027;-75
2022/04/22 06:16:31;;;;;;;39.85;23.48;;;;;;;;;;4937966;29;20020;-74
2022/04/22 06:18:56;;;;;;;37.40;23.42;;;;;;;;;;4937620;29;20364;-76
2022/04/22 06:21:21;;;;;;;38.70;22.45;;;;;;;;;;4937464;29;20023;-75
2022/04/22 06:23:47;;;;;;;40.83;24.23;;;;;;;;;;4937594;29;20472;-75
2022/04/22 06:26:12;;;;;;;39.67;24.25;;;;;;;;;;4904729;29;20228;-75
2022/04/22 06:28:37;;;;;;;41.05;24.10;;;;;;;;;;4937054;29;20012;-75
2022/04/22 06:31:03;;;;;;;44.53;24.00;;;;;;;;;;4937466;29;20015;-75
2022/04/22 06:33:28;;;;;;;41.97;23.75;;;;;;;;;;4935949;29;20118;-76
2022/04/22 06:35:53;;;;;;;46.17;25.05;;;;;;;;;;4923391;29;20075;-75
2022/04/22 06:38:19;;;;;;;45.67;25.83;;;;;;;;;;4920510;29;20399;-76
2022/04/22 06:46:14;;;;;;;45.63;25.35;;;;;;;;;;4920939;29;20058;-76
2022/04/22 06:48:39;;;;;;;45.83;25.83;;;;;;;;;;4923170;29;20023;-75
2022/04/22 06:51:07;;;;;;;45.65;24.67;;;;;;;;;;4919454;29;20067;-76
2022/04/22 06:53:32;;;;;;;43.45;25.15;;;;;;;;;;4936381;29;20116;-76
2022/04/22 06:56:00;;;;;;;46.05;25.15;;;;;;;;;;4919860;29;20114;-76
2022/04/22 06:58:26;;;;;;;45.33;25.27;;;;;;;;;;4918038;29;20024;-77
2022/04/22 07:00:51;;;;;;;44.42;24.55;;;;;;;;;;4920410;29;20028;-74
2022/04/22 07:03:17;;;;;;;44.83;24.73;;;;;;;;;;4934554;29;20034;-74
2022/04/22 07:05:44;;;;;;;42.97;24.55;;;;;;;;;;4936360;29;20012;-74
2022/04/22 07:08:14;;;;;;;44.90;24.90;;;;;;;;;;4919161;29;20464;-75
2022/04/22 07:10:49;;;;;;;46.33;24.88;;;;;;;;;;4936506;29;20034;-77
2022/04/22 07:13:18;;;;;;;43.15;24.10;;;;;;;;;;4918988;29;20026;-75
2022/04/22 07:15:45;;;;;;;53.47;26.10;;;;;;;;;;4918746;29;20071;-74
2022/04/22 07:18:11;;;;;;;43.63;23.90;;;;;;;;;;4924632;29;20023;-75
2022/04/22 07:20:43;;;;;;;41.10;22.88;;;;;;;;;;4919248;29;20026;-75
2022/04/22 07:23:12;;;;;;;41.45;24.27;;;;;;;;;;4934772;29;20024;-75
2022/04/22 07:25:43;;;;;;;43.63;24.02;;;;;;;;;;4933777;29;20016;-76
2022/04/22 07:28:19;;;;;;;38.95;22.85;;;;;;;;;;4934127;29;20455;-75
2022/04/22 07:30:50;;;;;;;39.55;23.75;;;;;;;;;;4919172;29;20016;-74
2022/04/22 07:33:15;;;;;;;42.85;23.23;;;;;;;;;;4935928;29;20492;-75
2022/04/22 07:35:41;;;;;;;45.47;24.05;;;;;;;;;;4930897;29;20079;-75
2022/04/22 07:38:06;;;;;;;41.85;22.83;;;;;;;;;;4918870;29;20050;-78
2022/04/22 07:40:32;;;;;;;40.22;22.92;;;;;;;;;;4933453;29;20019;-76
2022/04/22 07:48:26;;;;;;;41.17;23.60;;;;;;;;;;4936165;29;20486;-76
2022/04/22 07:50:54;;;;;;;38.97;23.05;;;;;;;;;;4918953;29;20016;-75
2022/04/22 07:53:19;;;;;;;37.47;23.85;;;;;;;;;;4935781;29;20031;-75
2022/04/22 07:55:46;;;;;;;39.45;23.33;;;;;;;;;;4917542;29;20078;-76
2022/04/22 07:58:13;;;;;;;39.10;22.60;;;;;;;;;;4935144;29;20099;-77
2022/04/22 08:00:40;;;;;;;42.05;22.42;;;;;;;;;;4918275;29;20020;-75
2022/04/22 08:03:05;;;;;;;40.13;20.92;;;;;;;;;;4934063;29;20182;-77
2022/04/22 08:05:31;;;;;;;43.80;20.10;;;;;;;;;;4918307;29;20485;-75
2022/04/22 08:07:56;;;;;;;32.75;20.80;;;;;;;;;;4932106;29;20027;-75
2022/04/22 08:10:22;;;;;;;35.42;21.02;;;;;;;;;;4919897;29;20012;-75
2022/04/22 08:12:47;;;;;;;34.28;19.70;;;;;;;;;;4917042;29;20027;-77
2022/04/22 08:15:12;;;;;;;33.95;18.50;;;;;;;;;;4917997;29;20447;-74
2022/04/22 08:17:38;;;;;;;31.25;18.55;;;;;;;;;;4935153;29;20027;-74
2022/04/22 08:20:06;;;;;;;31.92;17.95;;;;;;;;;;4917661;29;20372;-75
2022/04/22 08:22:32;;;;;;;31.35;17.70;;;;;;;;;;4934799;29;20024;-74
2022/04/22 08:24:57;;;;;;;32.28;19.33;;;;;;;;;;4917752;29;20455;-75
2022/04/22 08:27:26;;;;;;;33.47;18.10;;;;;;;;;;4934867;29;20071;-73
2022/04/22 08:29:52;;;;;;;27.92;17.67;;;;;;;;;;4916595;29;20424;-74
2022/04/22 08:32:17;;;;;;;29.27;17.17;;;;;;;;;;4917902;29;20078;-75
2022/04/22 08:34:43;;;;;;;31.92;17.48;;;;;;;;;;4934414;29;20043;-74
2022/04/22 08:37:08;;;;;;;27.63;17.33;;;;;;;;;;4934724;29;20024;-75
2022/04/22 08:39:33;;;;;;;24.20;16.30;;;;;;;;;;4934565;29;20027;-74
2022/04/22 08:41:59;;;;;;;28.40;16.20;;;;;;;;;;4917144;29;20051;-74
2022/04/22 08:44:25;;;;;;;25.35;15.85;;;;;;;;;;4918952;29;20012;-75
2022/04/22 08:52:22;;;;;;;24.30;14.60;;;;;;;;;;4937405;29;20054;-91
2022/04/22 08:54:48;;;;;;;24.25;14.85;;;;;;;;;;4920450;29;20471;-91
2022/04/22 08:57:14;;;;;;;23.40;15.18;;;;;;;;;;4920562;29;20032;-91
2022/04/22 08:59:41;;;;;;;23.08;13.90;;;;;;;;;;4932144;29;20034;-91
2022/04/22 09:02:07;;;;;;;25.92;13.93;;;;;;;;;;4922782;29;20023;-90
2022/04/22 09:04:32;;;;;;;23.70;13.93;;;;;;;;;;4932615;29;20443;-89
2022/04/22 09:06:59;;;;;;;24.75;14.15;;;;;;;;;;4948201;29;20376;-89
2022/04/22 09:09:24;;;;;;;24.05;15.00;;;;;;;;;;4947408;29;20016;-90
2022/04/22 09:11:53;;;;;;;23.25;15.23;;;;;;;;;;4943914;29;20071;-88
2022/04/22 09:14:22;;;;;;;22.52;13.40;;;;;;;;;;4931411;29;20107;-89
2022/04/22 09:16:50;;;;;;;21.15;13.10;;;;;;;;;;4947466;29;20056;-89
2022/04/22 09:19:18;;;;;;;23.23;13.38;;;;;;;;;;4934946;29;20507;-89
2022/04/22 09:21:54;;;;;;;19.95;12.68;;;;;;;;;;4947756;29;20074;-90
2022/04/22 09:24:20;;;;;;;20.08;12.32;;;;;;;;;;4933044;29;20024;-88
2022/04/22 09:26:45;;;;;;;17.90;11.60;;;;;;;;;;4931039;29;20030;-90
2022/04/22 09:29:11;;;;;;;17.00;11.55;;;;;;;;;;4938930;29;20051;-89
2022/04/22 09:31:46;;;;;;;16.85;11.07;;;;;;;;;;4931818;29;20027;-89
2022/04/22 09:34:12;;;;;;;16.50;10.95;;;;;;;;;;4931331;29;20028;-90
2022/04/22 09:44:57;;;;;;;17.20;11.25;;;;;;;;;;4948678;29;20133;-89
2022/04/22 09:47:30;;;;;;;16.02;10.25;;;;;;;;;;4942920;29;20032;-89
2022/04/22 09:49:56;;;;;;;19.15;11.43;;;;;;;;;;4933184;29;20216;-89
2022/04/22 09:52:26;;;;;;;21.25;10.75;;;;;;;;;;4933936;29;20026;-90
2022/04/22 09:54:56;;;;;;;19.73;11.38;;;;;;;;;;4943074;29;20028;-88
2022/04/22 09:57:21;;;;;;;17.73;10.27;;;;;;;;;;4913765;29;20234;-88
2022/04/22 09:59:46;;;;;;;17.40;10.75;;;;;;;;;;4933325;29;20031;-90
2022/04/22 10:02:14;;;;;;;19.88;11.65;;;;;;;;;;4937143;29;20014;-87
2022/04/22 10:04:43;;;;;;;19.48;11.52;;;;;;;;;;4933108;29;20026;-89
2022/04/22 10:07:09;;;;;;;18.08;10.98;;;;;;;;;;4940832;29;20023;-89
2022/04/22 10:09:43;;;;;;;19.58;10.90;;;;;;;;;;4932541;29;20031;-88
2022/04/22 10:12:09;;;;;;;18.60;11.30;;;;;;;;;;4934632;29;20019;-88
2022/04/22 10:14:38;;;;;;;16.67;10.43;;;;;;;;;;4934174;29;20023;-89
2022/04/22 10:17:04;;;;;;;14.93;10.20;;;;;;;;;;4943410;29;20030;-88
2022/04/22 10:19:31;;;;;;;19.20;10.95;;;;;;;;;;4932554;29;20031;-89
2022/04/22 10:21:56;;;;;;;17.50;10.32;;;;;;;;;;4944560;29;20116;-87
2022/04/22 10:24:22;;;;;;;18.75;10.05;;;;;;;;;;4947839;29;20064;-87
2022/04/22 10:26:48;;;;;;;15.65;9.60;;;;;;;;;;4931637;29;20596;-88
2022/04/22 10:29:14;;;;;;;18.58;9.02;;;;;;;;;;4930600;29;20020;-88
2022/04/22 10:31:42;;;;;;;21.10;9.35;;;;;;;;;;4931808;29;20024;-87
2022/04/22 10:34:10;;;;;;;14.30;9.05;;;;;;;;;;4946930;29;20558;-87
2022/04/22 10:36:38;;;;;;;16.45;9.18;;;;;;;;;;4930357;29;20019;-84
2022/04/22 10:39:06;;;;;;;14.63;8.35;;;;;;;;;;4925331;29;20046;-83
2022/04/22 10:41:33;;;;;;;20.67;9.70;;;;;;;;;;4940001;29;20028;-84
2022/04/22 10:49:44;;;;;;;16.88;8.25;;;;;;;;;;4927889;29;20150;-83
2022/04/22 10:52:13;;;;;;;15.30;8.70;;;;;;;;;;4940610;29;20040;-86
2022/04/22 10:54:51;;;;;;;17.15;7.80;;;;;;;;;;4931728;29;20026;-86
2022/04/22 10:57:27;;;;;;;;;;;;;;;;;;;;;
2022/04/22 11:00:08;;;;;;;16.27;9.73;;;;;;;;;;4942876;29;20563;-86
2022/04/22 11:02:34;;;;;;;19.35;9.15;;;;;;;;;;4933381;29;20038;-86
2022/04/22 11:05:20;;;;;;;14.55;8.25;;;;;;;;;;4923909;29;20079;-84
2022/04/22 11:07:58;;;;;;;15.02;8.93;;;;;;;;;;4937626;29;20023;-85
2022/04/22 11:10:41;;;;;;;14.02;8.77;;;;;;;;;;4923003;29;20016;-86
2022/04/22 11:13:07;;;;;;;18.27;9.90;;;;;;;;;;4937606;29;20027;-86
2022/04/22 11:15:46;;;;;;;14.57;9.75;;;;;;;;;;4938163;29;20027;-84
2022/04/22 11:18:12;;;;;;;20.17;10.80;;;;;;;;;;4923536;29;20407;-85
2022/04/22 11:20:37;;;;;;;14.98;9.27;;;;;;;;;;4939325;29;20022;-86
2022/04/22 11:23:05;;;;;;;16.90;9.85;;;;;;;;;;4937837;29;20024;-85
2022/04/22 11:25:31;;;;;;;17.02;10.82;;;;;;;;;;4939356;29;20472;-83
2022/04/22 11:27:57;;;;;;;14.25;10.38;;;;;;;;;;4921265;29;20020;-82
2022/04/22 11:30:24;;;;;;;12.23;9.30;;;;;;;;;;4921569;29;20020;-81
2022/04/22 11:32:52;;;;;;;14.18;10.02;;;;;;;;;;4920347;29;20023;-81
2022/04/22 11:35:21;;;;;;;14.65;10.32;;;;;;;;;;4940718;29;20024;-82
2022/04/22 11:38:00;;;;;;;18.55;10.63;;;;;;;;;;4916087;29;20031;-81
2022/04/22 11:40:25;;;;;;;13.35;9.43;;;;;;;;;;4923118;29;20024;-80
2022/04/22 11:42:54;;;;;;;16.77;10.38;;;;;;;;;;4935215;29;20050;-80
2022/04/22 11:45:20;;;;;;;14.50;10.02;;;;;;;;;;4920191;29;20019;-80
2022/04/22 11:47:45;;;;;;;18.52;9.73;;;;;;;;;;4936051;29;20020;-79
2022/04/22 11:50:21;;;;;;;16.40;10.18;;;;;;;;;;4935042;29;20027;-80
2022/04/22 11:53:18;;;;;;;14.48;10.25;;;;;;;;;;4934866;29;20047;-85
2022/04/22 11:55:44;;;;;;;14.77;10.53;;;;;;;;;;4875210;29;20040;-84
2022/04/22 11:58:10;;;;;;;15.57;10.30;;;;;;;;;;4863971;29;20025;-85
2022/04/22 12:06:06;;;;;;;14.95;10.35;;;;;;;;;;4882783;29;20059;-82
2022/04/22 12:08:32;;;;;;;16.77;9.90;;;;;;;;;;4864671;29;20033;-84
2022/04/22 12:10:58;;;;;;;14.80;10.50;;;;;;;;;;4864121;29;20071;-85
2022/04/22 12:13:24;;;;;;;13.95;10.35;;;;;;;;;;4887961;29;20528;-83
2022/04/22 12:15:49;;;;;;;16.13;9.90;;;;;;;;;;4874695;29;20489;-83
2022/04/22 12:18:44;;;;;;;16.83;10.15;;;;;;;;;;4859102;29;20025;-82
2022/04/22 12:21:29;;;;;;;13.93;9.75;;;;;;;;;;4870579;29;20101;-83
2022/04/22 12:24:02;;;;;;;14.07;10.32;;;;;;;;;;4883506;29;20036;-85
2022/04/22 12:26:30;;;;;;;13.82;8.80;;;;;;;;;;4881636;29;20435;-82
2022/04/22 12:28:57;;;;;;;14.32;7.70;;;;;;;;;;4877633;29;20053;-83
2022/04/22 12:31:22;;;;;;;15.30;8.10;;;;;;;;;;4885908;29;20024;-82
2022/04/22 12:34:01;;;;;;;15.80;8.85;;;;;;;;;;4937547;29;20502;-83
2022/04/22 12:36:27;;;;;;;12.98;8.95;;;;;;;;;;4928551;29;20027;-83
2022/04/22 12:38:52;;;;;;;13.32;8.27;;;;;;;;;;4938397;29;20028;-82
2022/04/22 12:41:18;;;;;;;14.18;9.13;;;;;;;;;;4926483;29;20562;-83
2022/04/22 12:43:50;;;;;;;15.82;9.13;;;;;;;;;;4921830;29;20024;-82
2022/04/22 12:52:12;;;;;;;11.38;7.55;;;;;;;;;;4938901;29;20023;-84
2022/04/22 12:54:37;;;;;;;15.63;8.50;;;;;;;;;;4922029;29;20039;-83
2022/04/22 12:57:06;;;;;;;13.20;8.80;;;;;;;;;;4923116;29;20023;-83
2022/04/22 12:59:41;;;;;;;12.18;7.70;;;;;;;;;;4935315;29;20420;-83
2022/04/22 13:02:08;;;;;;;11.30;8.27;;;;;;;;;;4943219;29;20031;-82
2022/04/22 13:04:33;;;;;;;16.20;9.00;;;;;;;;;;4934056;29;20078;-83
2022/04/22 13:07:08;;;;;;;13.90;8.65;;;;;;;;;;4934876;29;20020;-83
2022/04/22 13:09:33;;;;;;;13.48;7.95;;;;;;;;;;4917968;29;20150;-84
2022/04/22 13:11:59;;;;;;;15.20;7.75;;;;;;;;;;4939483;29;20015;-83
2022/04/22 13:14:24;;;;;;;11.50;7.28;;;;;;;;;;4920345;29;20023;-83
2022/04/22 13:16:50;;;;;;;11.93;7.43;;;;;;;;;;4944814;29;20118;-83
2022/04/22 13:19:15;;;;;;;12.85;7.35;;;;;;;;;;4923290;29;20020;-83
2022/04/22 13:21:40;;;;;;;14.30;8.45;;;;;;;;;;4942071;29;20024;-84
2022/04/22 13:24:06;;;;;;;17.45;8.07;;;;;;;;;;4931208;29;20020;-84
2022/04/22 13:26:31;;;;;;;13.63;8.48;;;;;;;;;;4932190;29;20439;-87
2022/04/22 13:28:57;;;;;;;13.40;8.85;;;;;;;;;;4935195;29;20024;-84
2022/04/22 13:31:23;;;;;;;11.38;8.15;;;;;;;;;;4948258;29;20483;-85
2022/04/22 13:33:49;;;;;;;13.85;7.80;;;;;;;;;;4949328;29;20095;-84
2022/04/22 13:36:15;;;;;;;15.52;8.57;;;;;;;;;;4938115;29;20008;-86
2022/04/22 13:38:43;;;;;;;12.32;8.52;;;;;;;;;;4951492;29;20024;-84
2022/04/22 13:41:09;;;;;;;14.48;8.43;;;;;;;;;;4946304;29;20028;-84
2022/04/22 13:43:35;;;;;;;14.50;8.50;;;;;;;;;;4931803;29;20483;-84
2022/04/22 13:54:13;;;;;;;14.43;8.32;;;;;;;;;;4935377;29;20108;-82
2022/04/22 13:56:38;;;;;;;15.88;9.52;;;;;;;;;;4930477;29;20027;-84
2022/04/22 13:59:03;;;;;;;13.27;9.30;;;;;;;;;;4941876;29;20510;-85
2022/04/22 14:01:29;;;;;;;14.32;9.52;;;;;;;;;;4923039;29;20015;-83
2022/04/22 14:03:54;;;;;;;24.33;9.98;;;;;;;;;;4938763;29;20613;-83
2022/04/22 14:06:19;;;;;;;13.83;9.07;;;;;;;;;;4948883;29;20023;-84
2022/04/22 14:08:44;;;;;;;15.35;9.82;;;;;;;;;;4932242;29;20260;-85
2022/04/22 14:11:10;;;;;;;16.85;9.05;;;;;;;;;;4947793;29;20080;-85
2022/04/22 14:13:35;;;;;;;14.60;9.23;;;;;;;;;;4945852;29;20024;-86
2022/04/22 14:16:02;;;;;;;16.92;9.88;;;;;;;;;;4927857;29;20079;-84
2022/04/22 14:18:34;;;;;;;14.48;9.85;;;;;;;;;;4945704;29;20030;-86
2022/04/22 14:21:03;;;;;;;16.85;9.85;;;;;;;;;;4944829;29;20035;-85
2022/04/22 14:23:31;;;;;;;15.13;10.50;;;;;;;;;;4948766;29;20087;-86
2022/04/22 14:26:00;;;;;;;13.43;9.93;;;;;;;;;;4947484;29;20024;-86
2022/04/22 14:28:25;;;;;;;;;;;;;;;;;;4964034;29;20031;-85
2022/04/22 14:30:51;;;;;;;31.43;21.03;;;;;;;;;;4947895;29;19906;-87
2022/04/22 14:33:21;;;;;;;16.67;11.38;;;;;;;;;;4949618;29;20262;-86
2022/04/22 14:35:47;;;;;;;16.23;10.38;;;;;;;;;;4933547;29;20051;-86
2022/04/22 14:38:15;;;;;;;17.00;11.43;;;;;;;;;;4932107;29;20030;-88
2022/04/22 14:40:41;;;;;;;15.88;11.15;;;;;;;;;;4929273;29;20079;-86
2022/04/22 14:43:09;;;;;;;15.23;10.55;;;;;;;;;;4923925;29;20024;-87
2022/04/22 14:45:34;;;;;;;17.33;11.25;;;;;;;;;;4924183;29;20026;-85
2022/04/22 14:48:00;;;;;;;16.23;10.85;;;;;;;;;;4928876;29;20494;-87
2022/04/22 14:50:26;;;;;;;18.05;10.85;;;;;;;;;;4935325;29;20435;-86
2022/04/22 14:52:51;;;;;;;17.42;10.80;;;;;;;;;;4940831;29;20031;-86
2022/04/22 14:55:17;;;;;;;18.30;11.10;;;;;;;;;;4933797;29;20023;-87
2022/04/22 14:57:42;;;;;;;17.98;11.30;;;;;;;;;;4925520;29;20031;-87
2022/04/22 15:00:09;;;;;;;17.15;10.95;;;;;;;;;;4924999;29;20055;-87
2022/04/22 15:02:34;;;;;;;20.00;11.40;;;;;;;;;;4924377;29;20471;-87
2022/04/22 15:05:00;;;;;;;16.63;10.63;;;;;;;;;;4923916;29;20076;-83
2022/04/22 15:07:31;;;;;;;15.95;10.65;;;;;;;;;;4919500;29;20016;-83
2022/04/22 15:09:56;;;;;;;15.25;9.75;;;;;;;;;;4934340;29;20099;-83
2022/04/22 15:12:22;;;;;;;19.73;10.55;;;;;;;;;;4936458;29;20059;-83
2022/04/22 15:14:47;;;;;;;16.25;10.63;;;;;;;;;;4939453;29;20051;-83
2022/04/22 15:17:13;;;;;;;18.52;9.65;;;;;;;;;;4918947;29;20032;-83
2022/04/22 15:25:06;;;;;;;15.65;10.80;;;;;;;;;;4952304;29;20058;-87
2022/04/22 15:27:32;;;;;;;17.52;10.20;;;;;;;;;;4922366;29;20028;-85
2022/04/22 15:29:57;;;;;;;18.63;10.48;;;;;;;;;;4936034;29;20494;-84
2022/04/22 15:32:23;;;;;;;15.60;10.20;;;;;;;;;;4936682;29;20023;-84
2022/04/22 15:34:49;;;;;;;18.15;9.80;;;;;;;;;;4918877;29;20475;-84
2022/04/22 15:37:14;;;;;;;14.50;8.93;;;;;;;;;;4935583;29;20027;-83
2022/04/22 15:39:39;;;;;;;16.52;9.43;;;;;;;;;;4918791;29;20023;-84
2022/04/22 15:42:04;;;;;;;16.15;9.52;;;;;;;;;;4917920;29;20031;-84